Time;durP1;ratioP1;P1;durP2;ratioP2;P2;SDS_P1;SDS_P2;PMS_P1;PMS_P2;Temp;Humidity;BMP_temperature;BMP_pressure;BME280_temperature;BME280_humidity;BME280_pressure;Samples;Min_cycle;Max_cycle;Signal;HPM_P1;HPM_P2
2022/09/26 00:01:23;;;;;;;26.88;13.30;;;10.30;99.90;;;;;;5055017;28;20033;-74
2022/09/26 00:03:51;;;;;;;24.80;12.50;;;10.20;99.90;;;;;;5055008;28;20050;-73
2022/09/26 00:06:18;;;;;;;25.23;13.90;;;10.30;99.90;;;;;;5053710;28;20047;-73
2022/09/26 00:08:48;;;;;;;27.35;14.23;;;10.30;99.90;;;;;;5053337;28;20559;-73
2022/09/26 00:11:19;;;;;;;26.45;14.15;;;10.40;99.90;;;;;;5054870;28;20025;-74
2022/09/26 00:13:44;;;;;;;17.25;11.85;;;10.40;99.90;;;;;;5054891;28;20061;-73
2022/09/26 00:16:12;;;;;;;23.48;13.02;;;10.50;99.90;;;;;;5063920;28;20058;-74
2022/09/26 00:18:38;;;;;;;15.45;11.00;;;10.50;99.90;;;;;;5074457;28;20027;-74
2022/09/26 00:21:08;;;;;;;16.77;11.00;;;10.50;99.90;;;;;;5074281;28;20381;-73
2022/09/26 00:23:34;;;;;;;16.73;10.95;;;10.40;99.90;;;;;;5072776;28;20028;-74
2022/09/26 00:26:00;;;;;;;17.48;10.23;;;10.30;99.90;;;;;;5065427;28;20379;-73
2022/09/26 00:28:26;;;;;;;17.77;12.18;;;10.20;99.90;;;;;;5054378;28;20036;-72
2022/09/26 00:30:52;;;;;;;17.15;11.63;;;10.20;99.90;;;;;;5060195;28;20032;-71
2022/09/26 00:33:18;;;;;;;17.55;10.93;;;10.20;99.90;;;;;;5069060;28;20036;-72
2022/09/26 00:35:51;;;;;;;14.18;10.35;;;10.30;99.90;;;;;;5082460;28;20385;-72
2022/09/26 00:38:17;;;;;;;18.38;10.95;;;10.50;99.90;;;;;;5060209;28;20028;-72
2022/09/26 00:40:43;;;;;;;16.42;11.25;;;10.70;99.90;;;;;;5054323;28;20116;-72
2022/09/26 00:43:35;;;;;;;17.30;11.77;;;10.70;99.90;;;;;;5062661;28;20116;-72
2022/09/26 00:46:25;;;;;;;16.58;11.20;;;10.70;99.90;;;;;;5054251;28;20483;-72
2022/09/26 00:49:37;;;;;;;23.33;12.45;;;10.70;99.90;;;;;;5054040;28;20031;-73
2022/09/26 00:52:14;;;;;;;19.95;11.65;;;10.60;99.90;;;;;;5050983;28;20041;-73
2022/09/26 00:54:44;;;;;;;18.92;12.10;;;10.50;99.90;;;;;;5058920;28;20096;-73
2022/09/26 00:57:26;;;;;;;23.02;12.35;;;10.40;99.90;;;;;;5073953;28;20012;-72
2022/09/26 00:59:58;;;;;;;21.17;11.85;;;10.40;99.90;;;;;;5074064;28;20032;-72
2022/09/26 01:02:27;;;;;;;18.55;12.52;;;10.40;99.90;;;;;;5072361;28;20115;-73
2022/09/26 01:04:53;;;;;;;18.02;11.88;;;10.40;99.90;;;;;;5064207;28;20025;-74
2022/09/26 01:07:22;;;;;;;19.65;12.70;;;10.50;99.90;;;;;;5053552;28;20040;-73
2022/09/26 01:09:48;;;;;;;22.85;13.45;;;10.50;99.90;;;;;;5053796;28;20032;-72
2022/09/26 01:12:14;;;;;;;23.10;12.57;;;10.30;99.90;;;;;;5053701;28;20025;-73
2022/09/26 01:14:41;;;;;;;23.60;13.40;;;10.30;99.90;;;;;;5053653;28;20021;-73
2022/09/26 01:17:08;;;;;;;21.20;12.85;;;10.40;99.90;;;;;;5053418;28;20021;-73
2022/09/26 01:19:45;;;;;;;20.95;13.35;;;10.40;99.90;;;;;;5053545;28;20021;-73
2022/09/26 01:22:34;;;;;;;22.45;13.60;;;10.40;99.90;;;;;;5053546;28;20033;-72
2022/09/26 01:25:31;;;;;;;22.13;13.00;;;10.60;99.90;;;;;;5053600;28;20403;-73
2022/09/26 01:28:18;;;;;;;27.30;13.52;;;10.60;99.90;;;;;;5052029;28;20025;-73
2022/09/26 01:31:00;;;;;;;19.85;12.80;;;10.50;99.90;;;;;;5053361;28;20108;-72
2022/09/26 01:34:08;;;;;;;18.00;13.65;;;10.60;99.90;;;;;;5056968;28;20382;-74
2022/09/26 01:37:00;;;;;;;19.70;11.73;;;10.60;99.90;;;;;;4988754;28;20058;-74
2022/09/26 01:39:40;;;;;;;19.10;13.02;;;10.60;99.90;;;;;;5065116;28;20505;-74
2022/09/26 01:42:21;;;;;;;18.27;12.68;;;10.60;99.90;;;;;;5073221;28;20032;-74
2022/09/26 01:45:11;;;;;;;24.08;13.40;;;10.80;99.90;;;;;;5055968;28;20104;-74
2022/09/26 01:48:07;;;;;;;23.70;13.40;;;10.80;99.90;;;;;;5052940;28;20029;-73
2022/09/26 01:50:56;;;;;;;18.73;12.10;;;10.70;99.90;;;;;;5052152;28;20044;-74
2022/09/26 01:53:31;;;;;;;21.92;13.23;;;10.80;99.90;;;;;;5060645;28;20723;-75
2022/09/26 01:56:04;;;;;;;21.85;14.70;;;10.80;99.90;;;;;;5072980;28;20031;-75
2022/09/26 01:58:36;;;;;;;32.28;15.00;;;10.80;99.90;;;;;;5072709;28;20032;-74
2022/09/26 02:01:07;;;;;;;25.10;16.20;;;10.60;99.90;;;;;;5072772;28;20119;-74
2022/09/26 02:03:38;;;;;;;24.90;16.00;;;10.50;99.90;;;;;;5061457;28;20039;-73
2022/09/26 02:06:22;;;;;;;23.17;15.38;;;10.40;99.90;;;;;;5071326;28;20104;-74
2022/09/26 02:08:55;;;;;;;28.85;15.73;;;10.50;99.90;;;;;;5072356;28;20546;-73
2022/09/26 02:11:21;;;;;;;26.35;16.02;;;10.60;99.90;;;;;;5071356;28;20031;-72
2022/09/26 02:14:03;;;;;;;32.50;17.63;;;10.40;99.90;;;;;;5072483;28;20024;-72
2022/09/26 02:16:40;;;;;;;31.60;16.85;;;10.40;99.90;;;;;;5071749;28;20024;-72
2022/09/26 02:19:16;;;;;;;33.30;17.45;;;10.50;99.90;;;;;;5065830;28;20116;-72
2022/09/26 02:21:42;;;;;;;27.98;16.40;;;10.50;99.90;;;;;;5064654;28;20024;-71
2022/09/26 02:24:08;;;;;;;20.00;14.18;;;10.40;99.90;;;;;;5052316;28;20120;-73
2022/09/26 02:26:34;;;;;;;27.73;15.85;;;10.40;99.90;;;;;;5052332;28;20068;-72
2022/09/26 02:29:00;;;;;;;27.05;15.43;;;10.30;99.90;;;;;;5052045;28;20056;-73
2022/09/26 02:31:31;;;;;;;26.23;15.43;;;10.30;99.90;;;;;;5051976;28;20045;-75
2022/09/26 02:33:57;;;;;;;28.58;15.95;;;10.30;99.90;;;;;;5052410;28;20028;-74
2022/09/26 02:36:23;;;;;;;27.35;15.18;;;10.30;99.90;;;;;;5077772;28;20024;-74
2022/09/26 02:38:49;;;;;;;26.85;15.45;;;10.30;99.90;;;;;;5051963;28;20032;-74
2022/09/26 02:41:36;;;;;;;23.92;15.18;;;10.20;99.90;;;;;;5051949;28;20475;-73
2022/09/26 02:44:09;;;;;;;25.73;14.48;;;10.20;99.90;;;;;;5050971;28;20060;-74
2022/09/26 02:46:52;;;;;;;23.20;14.57;;;10.20;99.90;;;;;;5056779;28;20047;-75
2022/09/26 02:49:39;;;;;;;22.08;14.80;;;10.10;99.90;;;;;;5058747;28;20086;-74
2022/09/26 02:52:34;;;;;;;25.48;15.18;;;10.10;99.90;;;;;;5061746;28;20100;-74
2022/09/26 02:55:12;;;;;;;24.27;14.95;;;10.10;99.90;;;;;;5057413;28;20090;-73
2022/09/26 02:58:06;;;;;;;27.13;15.75;;;10.10;99.90;;;;;;5058438;28;20028;-74
2022/09/26 03:01:09;;;;;;;19.17;13.68;;;10.00;99.90;;;;;;5054770;28;20433;-73
2022/09/26 03:03:41;;;;;;;25.48;14.40;;;10.00;99.90;;;;;;5062954;28;20021;-74
2022/09/26 03:06:12;;;;;;;19.75;13.65;;;10.10;99.90;;;;;;5058454;28;20029;-73
2022/09/26 03:08:41;;;;;;;24.50;14.23;;;10.10;99.90;;;;;;5059002;28;20017;-74
2022/09/26 03:11:09;;;;;;;19.50;12.63;;;10.00;99.90;;;;;;5063682;28;20064;-74
2022/09/26 03:13:37;;;;;;;17.23;12.13;;;9.90;99.90;;;;;;5063896;28;20031;-74
2022/09/26 03:16:05;;;;;;;21.20;12.75;;;9.80;99.90;;;;;;5051814;28;20029;-74
2022/09/26 03:18:37;;;;;;;21.25;13.43;;;9.80;99.90;;;;;;5065598;28;20085;-74
2022/09/26 03:21:03;;;;;;;22.45;14.48;;;9.80;99.90;;;;;;5071751;28;20021;-72
2022/09/26 03:23:29;;;;;;;20.38;12.85;;;9.80;99.90;;;;;;5056886;28;20025;-73
2022/09/26 03:26:07;;;;;;;22.13;13.32;;;9.80;99.90;;;;;;5071612;28;20387;-73
2022/09/26 03:28:34;;;;;;;24.52;13.80;;;9.80;99.90;;;;;;5068075;28;20025;-73
2022/09/26 03:31:00;;;;;;;23.40;14.30;;;9.80;99.90;;;;;;5061262;28;20089;-74
2022/09/26 03:33:25;;;;;;;21.38;13.80;;;9.80;99.90;;;;;;5068959;28;20029;-73
2022/09/26 03:35:51;;;;;;;23.77;13.82;;;9.80;99.90;;;;;;5050224;28;20021;-72
2022/09/26 03:38:16;;;;;;;18.33;12.70;;;9.80;99.90;;;;;;5063345;28;20017;-72
2022/09/26 03:40:42;;;;;;;29.42;15.05;;;10.00;99.90;;;;;;5061775;28;20028;-73
2022/09/26 03:43:09;;;;;;;19.30;12.00;;;10.00;99.90;;;;;;5057978;28;20107;-74
2022/09/26 03:45:35;;;;;;;24.50;14.32;;;10.00;99.90;;;;;;5061131;28;20039;-73
2022/09/26 03:48:01;;;;;;;17.17;12.18;;;10.10;99.90;;;;;;5064510;28;20032;-74
2022/09/26 03:50:27;;;;;;;19.77;12.93;;;10.00;99.90;;;;;;5061430;28;20709;-73
2022/09/26 03:52:52;;;;;;;29.58;15.18;;;10.10;99.90;;;;;;5057910;28;20056;-73
2022/09/26 03:55:18;;;;;;;29.13;15.88;;;9.90;99.90;;;;;;5060875;28;20509;-73
2022/09/26 03:57:44;;;;;;;30.45;15.75;;;9.80;99.90;;;;;;5063115;28;20032;-72
2022/09/26 04:00:10;;;;;;;29.98;15.98;;;9.60;99.90;;;;;;5059965;28;20409;-72
2022/09/26 04:02:35;;;;;;;21.58;13.65;;;9.60;99.90;;;;;;5056269;28;20490;-72
2022/09/26 04:05:01;;;;;;;34.55;22.00;;;9.70;99.90;;;;;;5061179;28;20032;-74
2022/09/26 04:07:26;;;;;;;147.55;89.32;;;9.70;99.90;;;;;;5050937;28;20021;-74
2022/09/26 04:09:52;;;;;;;50.10;21.50;;;9.50;99.90;;;;;;5051195;28;20044;-74
2022/09/26 04:12:19;;;;;;;71.72;30.27;;;9.50;99.90;;;;;;5050999;28;20025;-74
2022/09/26 04:14:45;;;;;;;59.65;27.02;;;9.40;99.90;;;;;;5051039;28;20033;-74
2022/09/26 04:17:11;;;;;;;41.80;20.75;;;9.30;99.90;;;;;;5064196;28;20143;-72
2022/09/26 04:19:37;;;;;;;60.85;50.40;;;9.40;99.90;;;;;;5051071;28;20028;-73
2022/09/26 04:22:03;;;;;;;48.72;21.60;;;9.30;99.90;;;;;;5063785;28;20056;-73
2022/09/26 04:24:29;;;;;;;35.05;20.48;;;9.30;99.90;;;;;;5060120;28;20036;-73
2022/09/26 04:26:55;;;;;;;40.38;20.27;;;9.30;99.90;;;;;;5057738;28;20025;-72
2022/09/26 04:29:20;;;;;;;36.38;18.33;;;9.50;99.90;;;;;;5069107;28;20024;-74
2022/09/26 04:31:46;;;;;;;36.42;18.75;;;9.50;99.90;;;;;;5067326;28;20033;-73
2022/09/26 04:34:13;;;;;;;26.80;17.02;;;9.50;99.90;;;;;;5059058;28;20025;-73
2022/09/26 04:36:39;;;;;;;24.92;15.18;;;9.60;99.90;;;;;;5051362;28;20111;-74
2022/09/26 04:39:05;;;;;;;26.45;15.60;;;9.50;99.90;;;;;;5060888;28;20427;-73
2022/09/26 04:41:31;;;;;;;30.10;15.48;;;9.50;99.90;;;;;;5070939;28;20417;-74
2022/09/26 04:43:58;;;;;;;32.03;15.68;;;9.50;99.90;;;;;;5062260;28;20059;-75
2022/09/26 04:46:26;;;;;;;28.98;16.83;;;9.40;99.90;;;;;;5074188;28;20042;-73
2022/09/26 04:48:54;;;;;;;35.95;17.30;;;9.40;99.90;;;;;;5069912;28;20025;-74
2022/09/26 04:51:20;;;;;;;36.38;18.52;;;9.30;99.90;;;;;;5058480;28;20116;-74
2022/09/26 04:53:46;;;;;;;33.92;17.55;;;9.20;99.90;;;;;;5063313;28;20017;-74
2022/09/26 04:56:14;;;;;;;33.42;18.98;;;9.20;99.90;;;;;;5058558;28;20024;-73
2022/09/26 04:58:40;;;;;;;34.22;18.88;;;9.20;99.90;;;;;;5062640;28;20025;-74
2022/09/26 05:01:11;;;;;;;29.60;17.58;;;9.20;99.90;;;;;;5072454;28;20016;-73
2022/09/26 05:03:37;;;;;;;32.65;18.10;;;9.20;99.90;;;;;;5062322;28;20025;-73
2022/09/26 05:06:06;;;;;;;30.00;17.88;;;9.20;99.90;;;;;;5067452;28;20047;-73
2022/09/26 05:08:31;;;;;;;42.72;19.02;;;9.10;99.90;;;;;;5065932;28;20094;-72
2022/09/26 05:10:57;;;;;;;41.97;18.17;;;9.00;99.90;;;;;;5060431;28;20037;-72
2022/09/26 05:13:24;;;;;;;30.35;17.90;;;8.90;99.90;;;;;;5062012;28;20021;-72
2022/09/26 05:15:54;;;;;;;35.92;20.05;;;8.80;99.90;;;;;;5071387;28;20067;-73
2022/09/26 05:18:20;;;;;;;34.05;18.75;;;8.90;99.90;;;;;;5073606;28;20067;-73
2022/09/26 05:20:49;;;;;;;36.08;19.45;;;8.90;99.90;;;;;;5073774;28;20020;-73
2022/09/26 05:26:18;;;;;;;38.72;20.52;;;8.90;99.90;;;;;;5072380;28;20463;-73
2022/09/26 05:26:18;;;;;;;38.50;20.90;;;8.80;99.90;;;;;;5073657;28;20037;-72
2022/09/26 05:28:45;;;;;;;31.00;19.95;;;8.90;99.90;;;;;;5072020;28;20066;-73
2022/09/26 05:31:10;;;;;;;38.28;21.13;;;8.90;99.90;;;;;;5073488;28;20029;-73
2022/09/26 05:33:37;;;;;;;38.00;20.10;;;8.90;99.90;;;;;;5070332;28;20056;-72
2022/09/26 05:36:04;;;;;;;46.10;22.13;;;8.80;99.90;;;;;;5067188;28;20158;-74
2022/09/26 05:38:29;;;;;;;48.22;24.02;;;8.80;99.90;;;;;;5073089;28;20146;-75
2022/09/26 05:40:55;;;;;;;28.77;18.00;;;8.70;99.90;;;;;;5073344;28;20127;-73
2022/09/26 05:43:21;;;;;;;28.88;18.33;;;8.70;99.90;;;;;;5069328;28;20105;-73
2022/09/26 05:45:48;;;;;;;41.30;21.05;;;8.90;99.90;;;;;;5065430;28;20031;-73
2022/09/26 05:48:15;;;;;;;42.83;22.25;;;8.90;99.90;;;;;;5072736;28;20025;-73
2022/09/26 05:50:42;;;;;;;37.35;25.42;;;8.90;99.90;;;;;;5072051;28;20109;-73
2022/09/26 05:53:08;;;;;;;34.78;21.98;;;8.90;99.90;;;;;;5059633;28;20024;-73
2022/09/26 05:55:34;;;;;;;89.30;23.48;;;8.80;99.90;;;;;;5051788;28;20025;-73
2022/09/26 05:57:59;;;;;;;58.65;25.58;;;8.80;99.90;;;;;;5067313;28;20122;-74
2022/09/26 06:00:26;;;;;;;36.75;20.45;;;8.80;99.90;;;;;;5060599;28;20108;-74
2022/09/26 06:03:00;;;;;;;32.63;20.80;;;8.80;99.90;;;;;;5058829;28;20103;-74
2022/09/26 06:05:26;;;;;;;35.55;23.75;;;8.90;99.90;;;;;;5071733;28;20119;-75
2022/09/26 06:07:52;;;;;;;29.38;20.70;;;9.10;99.90;;;;;;5073031;28;20025;-74
2022/09/26 06:10:19;;;;;;;34.08;20.75;;;9.20;99.90;;;;;;5072239;28;20033;-74
2022/09/26 06:12:45;;;;;;;38.80;22.15;;;9.30;99.90;;;;;;5052786;28;20021;-73
2022/09/26 06:15:11;;;;;;;39.28;23.30;;;9.20;99.90;;;;;;5052824;28;20032;-74
2022/09/26 06:17:36;;;;;;;39.75;24.02;;;9.30;99.90;;;;;;5052596;28;20100;-73
2022/09/26 06:20:05;;;;;;;44.00;24.30;;;9.40;99.90;;;;;;5065948;28;20115;-74
2022/09/26 06:22:37;;;;;;;36.20;22.98;;;9.50;99.90;;;;;;5060048;28;20020;-74
2022/09/26 06:25:03;;;;;;;35.92;23.80;;;9.50;99.90;;;;;;5069604;28;20470;-74
2022/09/26 06:27:28;;;;;;;34.63;23.75;;;9.60;99.90;;;;;;5052448;28;20100;-74
2022/09/26 06:29:54;;;;;;;38.58;24.08;;;9.70;99.90;;;;;;5053915;28;20036;-74
2022/09/26 06:32:19;;;;;;;47.25;25.17;;;9.70;99.90;;;;;;5070932;28;20034;-74
2022/09/26 06:34:45;;;;;;;44.92;25.50;;;9.70;99.90;;;;;;5072364;28;20023;-74
2022/09/26 06:37:10;;;;;;;44.22;26.23;;;9.70;99.90;;;;;;5071046;28;20032;-74
2022/09/26 06:39:36;;;;;;;38.92;24.70;;;9.60;99.90;;;;;;5070916;28;20086;-74
2022/09/26 06:42:06;;;;;;;38.90;24.95;;;9.70;99.90;;;;;;5072141;28;20028;-74
2022/09/26 06:44:32;;;;;;;50.47;30.33;;;9.70;99.90;;;;;;5070706;28;20021;-71
2022/09/26 06:47:01;;;;;;;39.72;24.38;;;9.80;99.90;;;;;;5060712;28;20044;-74
2022/09/26 06:49:27;;;;;;;33.97;23.88;;;9.80;99.90;;;;;;5056120;28;20032;-74
2022/09/26 06:51:53;;;;;;;34.10;22.75;;;9.70;99.90;;;;;;5051235;28;20021;-74
2022/09/26 06:54:19;;;;;;;38.45;23.75;;;9.70;99.90;;;;;;5067164;28;20083;-74
2022/09/26 06:56:44;;;;;;;39.72;23.92;;;9.80;99.90;;;;;;5071955;28;20078;-74
2022/09/26 06:59:11;;;;;;;36.03;22.10;;;10.00;99.90;;;;;;5070263;28;20048;-73
2022/09/26 07:01:36;;;;;;;31.73;22.63;;;9.90;99.90;;;;;;5052036;28;20372;-74
2022/09/26 07:04:02;;;;;;;30.75;22.30;;;9.90;99.90;;;;;;5053023;28;20043;-74
2022/09/26 07:06:28;;;;;;;28.52;21.10;;;9.90;99.90;;;;;;5063881;28;20028;-74
2022/09/26 07:08:55;;;;;;;34.95;23.52;;;9.90;99.90;;;;;;5052803;28;20021;-74
2022/09/26 07:11:21;;;;;;;30.80;20.27;;;10.10;99.90;;;;;;5071661;28;20632;-73
2022/09/26 07:13:47;;;;;;;28.10;21.55;;;10.10;99.90;;;;;;5071538;28;20101;-73
2022/09/26 07:16:12;;;;;;;33.60;23.27;;;10.20;99.90;;;;;;5071594;28;20107;-73
2022/09/26 07:18:38;;;;;;;35.53;25.27;;;10.30;99.90;;;;;;5071346;28;20021;-73
2022/09/26 07:21:07;;;;;;;34.25;23.67;;;10.30;99.90;;;;;;5070199;28;20478;-74
2022/09/26 07:23:33;;;;;;;31.70;20.70;;;10.10;99.90;;;;;;5071542;28;20036;-74
2022/09/26 07:25:59;;;;;;;25.40;20.50;;;10.10;99.90;;;;;;5071487;28;20039;-73
2022/09/26 07:28:25;;;;;;;31.15;24.52;;;10.20;99.90;;;;;;5071184;28;20794;-73
2022/09/26 07:30:55;;;;;;;31.63;23.83;;;10.30;99.90;;;;;;5071529;28;20078;-73
2022/09/26 07:33:21;;;;;;;32.20;21.23;;;10.40;99.90;;;;;;5071402;28;20032;-73
2022/09/26 07:35:47;;;;;;;37.30;24.63;;;10.30;99.90;;;;;;5081177;28;20028;-73
2022/09/26 07:38:13;;;;;;;28.70;22.50;;;10.40;99.90;;;;;;5058600;28;20021;-74
2022/09/26 07:40:39;;;;;;;27.85;20.90;;;10.50;99.90;;;;;;5051245;28;20475;-73
2022/09/26 07:43:05;;;;;;;33.72;21.55;;;10.60;99.90;;;;;;5064705;28;20032;-73
2022/09/26 07:50:59;;;;;;;25.35;19.58;;;10.70;99.90;;;;;;5051178;28;20098;-72
2022/09/26 07:53:26;;;;;;;26.40;18.15;;;10.60;99.90;;;;;;5059082;28;20025;-73
2022/09/26 07:56:04;;;;;;;22.15;16.63;;;10.50;99.90;;;;;;5069802;28;20040;-72
2022/09/26 07:58:30;;;;;;;19.85;16.08;;;10.40;99.90;;;;;;5071171;28;20028;-72
2022/09/26 08:00:56;;;;;;;19.42;16.40;;;10.40;99.90;;;;;;5069905;28;20036;-72
2022/09/26 08:03:25;;;;;;;19.67;15.90;;;10.40;99.90;;;;;;5069910;28;20032;-73
2022/09/26 08:05:53;;;;;;;19.90;15.68;;;10.60;99.90;;;;;;5071144;28;20020;-72
2022/09/26 08:08:18;;;;;;;17.65;14.63;;;10.90;99.90;;;;;;5070915;28;20024;-73
2022/09/26 08:10:44;;;;;;;18.92;14.98;;;11.00;99.90;;;;;;5070968;28;20025;-73
2022/09/26 08:13:10;;;;;;;15.13;12.55;;;11.50;99.90;;;;;;5071230;28;20017;-73
2022/09/26 08:15:35;;;;;;;17.23;13.50;;;11.50;99.90;;;;;;5073559;28;20043;-73
2022/09/26 08:18:02;;;;;;;16.00;12.57;;;11.60;99.90;;;;;;5074696;28;20467;-73
2022/09/26 08:20:28;;;;;;;14.50;12.05;;;11.80;99.90;;;;;;5070640;28;20128;-73
2022/09/26 08:22:54;;;;;;;19.67;12.55;;;11.80;99.90;;;;;;5054840;28;20166;-73
2022/09/26 08:25:19;;;;;;;17.88;12.18;;;11.70;99.90;;;;;;5054747;28;20040;-73
2022/09/26 08:27:47;;;;;;;12.90;11.55;;;11.70;99.90;;;;;;5054571;28;20029;-72
2022/09/26 08:30:13;;;;;;;15.25;11.90;;;11.70;99.90;;;;;;5070513;28;20090;-73
2022/09/26 08:32:39;;;;;;;16.80;11.73;;;11.70;99.90;;;;;;5065361;28;20063;-73
2022/09/26 08:35:06;;;;;;;15.02;11.95;;;11.90;99.90;;;;;;5074586;28;20051;-73
2022/09/26 08:37:31;;;;;;;15.90;11.45;;;11.70;99.90;;;;;;5082436;28;20548;-73
2022/09/26 08:39:59;;;;;;;12.95;11.65;;;11.50;99.90;;;;;;5057026;28;20029;-73
2022/09/26 08:43:03;;;;;;;14.95;12.70;;;11.30;99.90;;;;;;5061703;28;20032;-72
2022/09/26 08:48:44;;;;;;;16.90;12.18;;;11.80;99.90;;;;;;5049854;28;20136;-73
2022/09/26 08:51:30;;;;;;;13.98;11.45;;;12.00;99.90;;;;;;5071156;28;20099;-73
2022/09/26 08:54:05;;;;;;;14.70;10.98;;;12.10;99.90;;;;;;5054344;28;20025;-73
2022/09/26 08:56:35;;;;;;;13.93;11.00;;;12.10;99.90;;;;;;5060249;28;20029;-73
2022/09/26 08:59:04;;;;;;;15.48;12.20;;;12.20;99.90;;;;;;5074196;28;20017;-74
2022/09/26 09:01:34;;;;;;;16.02;11.13;;;12.30;99.90;;;;;;5072853;28;20051;-73
2022/09/26 09:04:11;;;;;;;18.05;13.18;;;12.20;99.90;;;;;;5074328;28;20384;-75
2022/09/26 09:06:37;;;;;;;16.10;12.85;;;11.80;99.90;;;;;;5074188;28;20028;-75
2022/09/26 09:09:02;;;;;;;15.73;12.93;;;12.10;99.90;;;;;;5072731;28;20046;-74
2022/09/26 09:11:42;;;;;;;17.70;11.85;;;12.00;99.90;;;;;;5074010;28;20423;-74
2022/09/26 09:14:28;;;;;;;16.50;12.27;;;12.40;99.90;;;;;;5055714;28;20017;-74
2022/09/26 09:17:13;;;;;;;16.45;11.80;;;12.60;99.90;;;;;;5054579;28;20091;-74
2022/09/26 09:19:56;;;;;;;14.20;11.50;;;12.70;99.90;;;;;;5074035;28;20025;-74
2022/09/26 09:22:45;;;;;;;14.18;11.80;;;12.80;99.90;;;;;;5073794;28;20031;-74
2022/09/26 09:25:23;;;;;;;18.13;11.88;;;13.00;99.90;;;;;;5064445;28;20028;-74
2022/09/26 09:28:07;;;;;;;17.38;13.50;;;13.10;99.90;;;;;;5059708;28;20017;-75
2022/09/26 09:30:35;;;;;;;16.90;12.75;;;13.50;99.90;;;;;;5056029;28;20025;-74
2022/09/26 09:33:15;;;;;;;12.95;11.57;;;13.30;99.90;;;;;;5053951;28;20166;-74
2022/09/26 09:35:50;;;;;;;15.98;11.60;;;13.40;99.90;;;;;;5070258;28;20020;-74
2022/09/26 09:38:18;;;;;;;16.17;11.68;;;13.70;99.90;;;;;;5058682;28;20024;-74
2022/09/26 09:41:17;;;;;;;13.10;10.38;;;14.10;99.90;;;;;;5063513;28;20035;-74
2022/09/26 09:43:47;;;;;;;16.08;10.63;;;13.90;99.90;;;;;;5063518;28;20418;-74
2022/09/26 09:46:22;;;;;;;15.07;9.93;;;13.90;99.90;;;;;;5053229;28;20028;-74
2022/09/26 09:48:52;;;;;;;15.85;9.30;;;13.80;99.90;;;;;;5053123;28;20017;-74
2022/09/26 09:51:27;;;;;;;13.32;8.75;;;14.00;99.90;;;;;;5052982;28;20021;-74
2022/09/26 09:54:08;;;;;;;12.88;7.88;;;14.00;99.90;;;;;;5053259;28;20103;-74
2022/09/26 09:57:09;;;;;;;13.88;8.25;;;14.10;99.90;;;;;;5053046;28;20021;-74
2022/09/26 09:59:53;;;;;;;9.90;7.68;;;14.20;99.90;;;;;;5055269;28;20031;-74
2022/09/26 10:02:45;;;;;;;14.75;8.07;;;14.20;99.90;;;;;;5062930;28;20025;-75
2022/09/26 10:05:47;;;;;;;10.63;7.20;;;14.40;99.90;;;;;;5061197;28;20021;-74
2022/09/26 10:08:34;;;;;;;11.68;7.53;;;14.50;99.90;;;;;;5067753;28;20070;-74
2022/09/26 10:11:40;;;;;;;9.50;7.55;;;14.80;99.90;;;;;;5058283;28;20082;-73
2022/09/26 10:14:12;;;;;;;10.65;7.15;;;14.80;99.90;;;;;;5056624;28;20029;-74
2022/09/26 10:17:07;;;;;;;10.90;6.70;;;14.30;99.90;;;;;;5067791;28;20024;-73
2022/09/26 10:19:36;;;;;;;8.18;4.85;;;14.40;99.90;;;;;;5061066;28;20110;-74
2022/09/26 10:22:07;;;;;;;8.23;4.60;;;14.60;99.90;;;;;;5061424;28;20560;-74
2022/09/26 10:24:39;;;;;;;7.25;4.03;;;14.30;99.90;;;;;;5062520;28;20025;-74
2022/09/26 10:27:23;;;;;;;7.03;3.58;;;14.30;99.90;;;;;;5062040;28;20079;-74
2022/09/26 10:30:00;;;;;;;6.70;3.78;;;14.00;99.90;;;;;;5066245;28;20037;-74
2022/09/26 10:32:26;;;;;;;7.43;3.75;;;14.00;99.90;;;;;;5054026;28;20078;-74
2022/09/26 10:35:02;;;;;;;6.22;3.10;;;13.80;99.90;;;;;;5060955;28;20482;-74
2022/09/26 10:37:29;;;;;;;9.57;3.83;;;14.00;99.90;;;;;;5064647;28;20021;-74
2022/09/26 10:42:45;;;;;;;6.03;3.53;;;14.10;99.90;;;;;;5059156;28;20031;-74
2022/09/26 10:45:25;;;;;;;6.45;3.70;;;14.00;99.90;;;;;;5052122;28;20059;-74
2022/09/26 10:47:52;;;;;;;6.30;3.72;;;13.80;99.90;;;;;;5062630;28;20386;-74
2022/09/26 10:50:24;;;;;;;8.10;3.33;;;14.10;99.90;;;;;;5057260;28;20362;-74
2022/09/26 10:53:07;;;;;;;5.93;3.40;;;14.20;99.90;;;;;;5057137;28;20044;-74
2022/09/26 10:55:46;;;;;;;6.03;3.40;;;14.00;99.90;;;;;;5064368;28;20028;-74
2022/09/26 10:58:22;;;;;;;5.80;3.10;;;13.80;99.90;;;;;;5058619;28;20021;-74
2022/09/26 11:00:49;;;;;;;7.53;3.47;;;13.70;99.90;;;;;;5082392;28;20025;-74
2022/09/26 11:03:31;;;;;;;5.68;3.38;;;13.60;99.90;;;;;;5058321;28;20398;-74
2022/09/26 11:05:58;;;;;;;5.68;3.45;;;13.70;99.90;;;;;;5056791;28;20017;-73
2022/09/26 11:08:28;;;;;;;7.38;3.50;;;13.70;99.90;;;;;;5059850;28;20021;-74
2022/09/26 11:11:09;;;;;;;4.85;3.15;;;13.80;99.90;;;;;;5062750;28;20390;-73
2022/09/26 11:13:49;;;;;;;4.75;2.90;;;13.70;99.90;;;;;;5061902;28;20393;-73
2022/09/26 11:16:18;;;;;;;3.78;2.25;;;13.60;99.90;;;;;;5051781;28;20028;-74
2022/09/26 11:19:25;;;;;;;7.22;2.65;;;14.00;99.90;;;;;;5059515;28;20048;-73
2022/09/26 11:22:13;;;;;;;6.90;3.20;;;14.80;99.90;;;;;;5054320;28;20032;-74
2022/09/26 11:25:05;;;;;;;6.10;3.13;;;14.80;99.90;;;;;;5066276;28;20470;-74
2022/09/26 11:27:49;;;;;;;7.07;2.90;;;14.70;99.90;;;;;;5063180;28;20028;-74
2022/09/26 11:30:20;;;;;;;5.93;3.03;;;15.20;99.90;;;;;;5051293;28;20067;-74
2022/09/26 11:32:55;;;;;;;7.32;2.50;;;15.30;99.90;;;;;;5050576;28;20097;-73
2022/09/26 11:35:32;;;;;;;6.93;2.65;;;15.20;99.90;;;;;;5066226;28;20025;-73
2022/09/26 11:38:26;;;;;;;3.55;2.28;;;15.10;99.90;;;;;;5054972;28;20040;-74
2022/09/26 11:41:06;;;;;;;4.60;2.17;;;14.70;99.90;;;;;;5059610;28;20082;-75
2022/09/26 11:43:50;;;;;;;5.30;2.40;;;14.40;99.90;;;;;;5062608;28;20032;-74
2022/09/26 11:46:27;;;;;;;4.68;2.40;;;14.40;99.90;;;;;;5068968;28;20024;-74
2022/09/26 11:49:17;;;;;;;7.10;2.58;;;14.40;99.90;;;;;;5064034;28;20429;-74
2022/09/26 11:51:59;;;;;;;6.22;2.30;;;14.20;99.90;;;;;;5073599;28;20032;-74
2022/09/26 11:54:57;;;;;;;3.25;2.10;;;13.70;99.90;;;;;;5075321;28;20016;-74
2022/09/26 11:58:04;;;;;;;5.05;2.30;;;13.90;99.90;;;;;;5073912;28;20382;-74
2022/09/26 12:00:37;;;;;;;;;;;13.70;99.90;;;;;;5074110;28;20478;-74
2022/09/26 12:03:21;;;;;;;5.28;1.90;;;13.70;99.90;;;;;;5075304;28;20114;-74
2022/09/26 12:05:53;;;;;;;5.07;2.30;;;13.80;99.90;;;;;;5073793;28;20032;-74
2022/09/26 12:09:06;;;;;;;3.22;1.75;;;13.70;99.90;;;;;;5074969;28;20362;-75
2022/09/26 12:11:37;;;;;;;4.78;1.83;;;13.70;99.90;;;;;;5070792;28;20033;-75
2022/09/26 12:14:02;;;;;;;4.75;2.03;;;13.70;99.90;;;;;;5074984;28;20025;-74
2022/09/26 12:16:34;;;;;;;3.53;1.70;;;13.70;99.90;;;;;;5074877;28;20035;-74
2022/09/26 12:19:14;;;;;;;3.70;2.00;;;13.80;99.90;;;;;;5074724;28;20063;-74
2022/09/26 12:25:06;;;;;;;3.70;2.20;;;13.80;99.90;;;;;;5074913;28;20063;-74
2022/09/26 12:27:48;;;;;;;5.38;2.15;;;13.90;99.90;;;;;;5074691;28;20013;-75
2022/09/26 12:30:28;;;;;;;6.75;1.90;;;13.90;99.90;;;;;;5074553;28;20024;-75
2022/09/26 12:33:24;;;;;;;4.07;1.80;;;13.80;99.90;;;;;;5074513;28;20029;-75
2022/09/26 12:35:52;;;;;;;3.33;1.83;;;13.90;99.90;;;;;;5083939;28;20043;-75
2022/09/26 12:38:50;;;;;;;3.60;1.88;;;13.90;99.90;;;;;;5060635;28;20021;-75
2022/09/26 12:41:21;;;;;;;5.82;2.10;;;14.00;99.90;;;;;;5053162;28;20021;-75
2022/09/26 12:44:21;;;;;;;2.28;1.83;;;14.10;99.90;;;;;;5064529;28;20510;-75
2022/09/26 12:47:08;;;;;;;3.40;1.77;;;14.10;99.90;;;;;;5053807;28;20117;-74
2022/09/26 12:50:07;;;;;;;3.78;1.60;;;14.20;99.90;;;;;;5054395;28;20390;-75
2022/09/26 12:53:09;;;;;;;3.67;2.05;;;14.60;99.90;;;;;;5054409;28;20175;-75
2022/09/26 12:56:08;;;;;;;4.80;1.52;;;15.40;99.90;;;;;;5054243;28;20104;-74
2022/09/26 12:58:56;;;;;;;2.80;1.52;;;17.00;99.90;;;;;;5053950;28;20033;-75
2022/09/26 13:01:50;;;;;;;2.92;1.33;;;16.80;99.90;;;;;;5053399;28;20021;-74
2022/09/26 13:04:43;;;;;;;3.05;1.20;;;15.70;99.90;;;;;;5052712;28;20116;-74
2022/09/26 13:07:41;;;;;;;3.30;1.40;;;15.90;99.90;;;;;;5053811;28;20075;-75
2022/09/26 13:10:22;;;;;;;2.75;1.30;;;16.00;99.90;;;;;;5053918;28;20033;-75
2022/09/26 13:12:56;;;;;;;4.75;1.75;;;15.50;99.90;;;;;;5059689;28;20099;-75
2022/09/26 13:15:56;;;;;;;2.78;1.48;;;15.10;99.90;;;;;;5073845;28;20025;-75
2022/09/26 13:18:30;;;;;;;3.10;1.63;;;14.90;99.90;;;;;;4999277;28;20038;-75
2022/09/26 13:21:05;;;;;;;3.78;1.40;;;14.80;99.90;;;;;;5053775;28;20036;-74
2022/09/26 13:23:37;;;;;;;4.60;2.20;;;14.70;99.90;;;;;;5053611;28;20112;-74